• Join FlightAware (Why Join?)
  • Login
  • US Flag 
09:52PM EST


 

Airport Tracker/Info


-or-


 

Live Flight TrackerFlight Track Log ✈ CSN6877 ✈ 17-Feb-2014 ✈ ZWWW / URC - ZWAK / AKU

Flight Track Log - Related Links

Times and Time Zones

All times are in EST time to prevent confusion due to time zone crossing. See the CSN6877 flight status page for this flight to view local times or setup timezone preferences in your user account.

Time Position Orientation Groundspeed Altitude Reporting Facility
EST Latitude Longitude Course Direction KTS MPH feet Rate Location/Type
09:18PM 43.5694 86.4467 246° West  Level Estimated
09:19PM 43.5265 86.3191 245° Southwest  Level Estimated
09:20PM 43.4835 86.1916 245° Southwest  Level Estimated
09:21PM 43.4404 86.0643 245° Southwest  Level Estimated
09:22PM 43.3971 85.9372 245° Southwest  Level Estimated
09:23PM 43.3537 85.8103 245° Southwest  Level Estimated
09:24PM 43.3101 85.6836 245° Southwest  Level Estimated
09:25PM 43.2664 85.5571 245° Southwest  Level Estimated
09:26PM 43.2226 85.4307 245° Southwest  Level Estimated
09:27PM 43.1786 85.3046 244° Southwest  Level Estimated
09:28PM 43.1345 85.1786 244° Southwest  Level Estimated
09:29PM 43.0902 85.0527 244° Southwest  Level Estimated
09:30PM 43.0458 84.9271 244° Southwest  Level Estimated
09:31PM 43.0013 84.8017 244° Southwest  Level Estimated
09:32PM 42.9566 84.6764 244° Southwest  Level Estimated
09:33PM 42.9118 84.5513 244° Southwest  Level Estimated
09:34PM 42.8669 84.4264 244° Southwest  Level Estimated
09:35PM 42.8218 84.3017 244° Southwest  Level Estimated
09:36PM 42.7766 84.1772 244° Southwest  Level Estimated
09:37PM 42.7312 84.0528 244° Southwest  Level Estimated
09:38PM 42.6858 83.9286 244° Southwest  Level Estimated
09:39PM 42.6401 83.8046 243° Southwest  Level Estimated
09:40PM 42.5944 83.6808 243° Southwest  Level Estimated
09:41PM 42.5485 83.5572 243° Southwest  Level Estimated
09:42PM 42.5025 83.4337 243° Southwest  Level Estimated
09:43PM 42.4563 83.3105 243° Southwest  Level Estimated
09:44PM 42.4101 83.1874 243° Southwest  Level Estimated
09:45PM 42.3637 83.0645 243° Southwest  Level Estimated
09:46PM 42.3171 82.9418 243° Southwest  Level Estimated
09:47PM 42.2705 82.8193 243° Southwest  Level Estimated
09:48PM 42.2237 82.6969 243° Southwest  Level Estimated
09:49PM 42.1767 82.5747 243° Southwest  Level Estimated
09:50PM 42.1297 82.4527 243° Southwest  Level Estimated
09:51PM 42.0825 82.3309 242° Southwest  Level Estimated
09:52PM 42.0351 82.2093 242° Southwest  Level Estimated
09:53PM 41.9877 82.0878 242° Southwest  Level Estimated
09:54PM 41.9401 81.9666 242° Southwest  Level Estimated
09:55PM 41.8924 81.8455 242° Southwest  Level Estimated
09:56PM 41.8446 81.7246 242° Southwest  Level Estimated
09:57PM 41.7966 81.6039 242° Southwest  Level Estimated
09:58PM 41.7486 81.4833 242° Southwest  Level Estimated
09:59PM 41.7004 81.3630 242° Southwest  Level Estimated
10:00PM 41.6520 81.2428 242° Southwest  Level Estimated
10:01PM 41.6036 81.1228 242° Southwest  Level Estimated
10:02PM 41.5550 81.0030 242° Southwest  Level Estimated
10:03PM 41.5063 80.8833 242° Southwest  Level Estimated
10:04PM 41.4574 80.7638 241° Southwest  Level Estimated
10:05PM 41.4085 80.6446 241° Southwest  Level Estimated
10:06PM 41.3594 80.5255 241° Southwest  Level Estimated
10:07PM 41.3102 80.4065 241° Southwest  Level Estimated
10:08PM 41.2625 80.2917 241° Southwest  Level Estimated
10:09PM 41.2625 80.2917 270° West  Level Estimated
10:10PM 41.2625 80.2917 270° West  Level Estimated
10:11PM 41.2625 80.2917 270° West  Level Estimated
10:12PM 41.2625 80.2917 270° West  Level Estimated
10:13PM 41.2625 80.2917 270° West  Level Estimated
10:14PM 41.2625 80.2917 270° West  Level Estimated
10:15PM 41.2625 80.2917 270° West  Level Estimated
10:16PM 41.2625 80.2917 270° West  Level Estimated